Terminal Aerodrome Forecast
Issued by NWS

Home | Current Version | Previous Version | Text Only | Print | Product List | Glossary On
Versions: 1 2 3 4 5 6 7 8 9 10 11 12 13 14 15 16 17 18 19 20 21 22 23 24 25 26
000
FTUS41 KBOX 272026 AAA
TAFBAF
TAF AMD
KBAF 272026Z 2720/2818 VRB03KT P6SM VCTS BKN040CB
     FM280000 VRB03KT P6SM VCSH BKN050
     FM280700 32005KT P6SM SCT130
     FM280900 33005KT 3SM BR FEW250
     FM281100 33005KT P6SM FEW250
     FM281600 33009KT P6SM FEW250=

USA.gov is the U.S. government's official web portal to all federal, state and local government web resources and services.